sensor_id;sensor_type;location;lat;lon;timestamp;temperature;humidity
32640;DHT22;19049;52.524;11.468;2022-09-03T00:01:09;16.80;50.00
32640;DHT22;19049;52.524;11.468;2022-09-03T00:03:42;16.70;50.20
32640;DHT22;19049;52.524;11.468;2022-09-03T00:06:13;16.70;50.10
32640;DHT22;19049;52.524;11.468;2022-09-03T00:12:08;16.50;50.30
32640;DHT22;19049;52.524;11.468;2022-09-03T00:14:26;16.40;50.40
32640;DHT22;19049;52.524;11.468;2022-09-03T00:16:59;16.30;50.60
32640;DHT22;19049;52.524;11.468;2022-09-03T00:19:32;16.30;50.90
32640;DHT22;19049;52.524;11.468;2022-09-03T00:22:04;16.20;51.60
32640;DHT22;19049;52.524;11.468;2022-09-03T00:24:38;16.10;50.90
32640;DHT22;19049;52.524;11.468;2022-09-03T00:27:10;16.00;51.20
32640;DHT22;19049;52.524;11.468;2022-09-03T00:29:47;16.00;51.30
32640;DHT22;19049;52.524;11.468;2022-09-03T00:32:17;15.90;51.40
32640;DHT22;19049;52.524;11.468;2022-09-03T00:34:50;15.80;51.40
32640;DHT22;19049;52.524;11.468;2022-09-03T00:37:19;15.70;51.40
32640;DHT22;19049;52.524;11.468;2022-09-03T00:39:45;15.60;51.30
32640;DHT22;19049;52.524;11.468;2022-09-03T00:42:38;15.50;51.50
32640;DHT22;19049;52.524;11.468;2022-09-03T00:48:30;15.30;52.10
32640;DHT22;19049;52.524;11.468;2022-09-03T00:59:39;14.90;52.80
32640;DHT22;19049;52.524;11.468;2022-09-03T01:05:10;14.80;52.90
32640;DHT22;19049;52.524;11.468;2022-09-03T01:10:55;14.70;53.20
32640;DHT22;19049;52.524;11.468;2022-09-03T01:13:41;14.70;53.70
32640;DHT22;19049;52.524;11.468;2022-09-03T01:31:52;14.10;53.90
32640;DHT22;19049;52.524;11.468;2022-09-03T01:45:34;13.70;55.40
32640;DHT22;19049;52.524;11.468;2022-09-03T02:01:29;13.60;56.10
32640;DHT22;19049;52.524;11.468;2022-09-03T02:03:58;13.70;56.00
32640;DHT22;19049;52.524;11.468;2022-09-03T02:06:25;13.70;56.10
32640;DHT22;19049;52.524;11.468;2022-09-03T02:08:52;13.70;56.20
32640;DHT22;19049;52.524;11.468;2022-09-03T02:11:17;13.70;56.50
32640;DHT22;19049;52.524;11.468;2022-09-03T02:13:48;13.70;56.60
32640;DHT22;19049;52.524;11.468;2022-09-03T02:16:19;13.70;56.60
32640;DHT22;19049;52.524;11.468;2022-09-03T02:18:50;13.70;56.90
32640;DHT22;19049;52.524;11.468;2022-09-03T02:21:19;13.60;56.50
32640;DHT22;19049;52.524;11.468;2022-09-03T02:23:46;13.60;56.50
32640;DHT22;19049;52.524;11.468;2022-09-03T02:26:15;13.60;56.60
32640;DHT22;19049;52.524;11.468;2022-09-03T02:28:42;13.50;57.00
32640;DHT22;19049;52.524;11.468;2022-09-03T02:31:09;13.50;56.60
32640;DHT22;19049;52.524;11.468;2022-09-03T02:33:37;13.50;57.00
32640;DHT22;19049;52.524;11.468;2022-09-03T02:36:07;13.50;57.00
32640;DHT22;19049;52.524;11.468;2022-09-03T02:38:33;13.40;57.10
32640;DHT22;19049;52.524;11.468;2022-09-03T02:40:59;13.40;56.70
32640;DHT22;19049;52.524;11.468;2022-09-03T02:45:54;13.20;57.00
32640;DHT22;19049;52.524;11.468;2022-09-03T02:48:23;13.20;57.20
32640;DHT22;19049;52.524;11.468;2022-09-03T02:50:49;13.20;57.20
32640;DHT22;19049;52.524;11.468;2022-09-03T02:53:14;13.10;57.40
32640;DHT22;19049;52.524;11.468;2022-09-03T02:55:40;13.10;57.50
32640;DHT22;19049;52.524;11.468;2022-09-03T02:58:08;13.00;57.50
32640;DHT22;19049;52.524;11.468;2022-09-03T03:00:35;13.00;57.50
32640;DHT22;19049;52.524;11.468;2022-09-03T03:03:03;13.00;57.60
32640;DHT22;19049;52.524;11.468;2022-09-03T03:05:45;12.90;58.10
32640;DHT22;19049;52.524;11.468;2022-09-03T03:08:13;12.90;58.50
32640;DHT22;19049;52.524;11.468;2022-09-03T03:10:46;12.90;58.30
32640;DHT22;19049;52.524;11.468;2022-09-03T03:13:12;12.90;58.30
32640;DHT22;19049;52.524;11.468;2022-09-03T03:15:38;12.90;58.40
32640;DHT22;19049;52.524;11.468;2022-09-03T03:18:04;12.80;58.40
32640;DHT22;19049;52.524;11.468;2022-09-03T03:20:30;12.80;58.70
32640;DHT22;19049;52.524;11.468;2022-09-03T03:22:56;12.80;58.60
32640;DHT22;19049;52.524;11.468;2022-09-03T03:25:21;12.80;59.10
32640;DHT22;19049;52.524;11.468;2022-09-03T03:27:47;12.80;59.00
32640;DHT22;19049;52.524;11.468;2022-09-03T03:30:13;12.80;58.80
32640;DHT22;19049;52.524;11.468;2022-09-03T03:32:39;12.80;59.10
32640;DHT22;19049;52.524;11.468;2022-09-03T03:35:07;12.80;59.20
32640;DHT22;19049;52.524;11.468;2022-09-03T03:37:32;12.70;59.40
32640;DHT22;19049;52.524;11.468;2022-09-03T03:40:00;12.70;59.40
32640;DHT22;19049;52.524;11.468;2022-09-03T03:42:25;12.70;59.50
32640;DHT22;19049;52.524;11.468;2022-09-03T03:44:51;12.70;59.50
32640;DHT22;19049;52.524;11.468;2022-09-03T03:47:16;12.70;59.50
32640;DHT22;19049;52.524;11.468;2022-09-03T03:49:43;12.70;59.80
32640;DHT22;19049;52.524;11.468;2022-09-03T03:52:09;12.60;59.70
32640;DHT22;19049;52.524;11.468;2022-09-03T03:54:35;12.60;59.70
32640;DHT22;19049;52.524;11.468;2022-09-03T03:57:00;12.60;59.70
32640;DHT22;19049;52.524;11.468;2022-09-03T03:59:26;12.50;59.80
32640;DHT22;19049;52.524;11.468;2022-09-03T04:01:54;12.50;59.90
32640;DHT22;19049;52.524;11.468;2022-09-03T04:04:19;12.50;60.00
32640;DHT22;19049;52.524;11.468;2022-09-03T04:06:45;12.40;61.00
32640;DHT22;19049;52.524;11.468;2022-09-03T04:09:11;12.40;60.40
32640;DHT22;19049;52.524;11.468;2022-09-03T04:11:36;12.40;60.40
32640;DHT22;19049;52.524;11.468;2022-09-03T04:14:07;12.40;60.50
32640;DHT22;19049;52.524;11.468;2022-09-03T04:16:32;12.50;89.30
32640;DHT22;19049;52.524;11.468;2022-09-03T04:18:58;12.50;85.70
32640;DHT22;19049;52.524;11.468;2022-09-03T04:21:26;12.40;69.00
32640;DHT22;19049;52.524;11.468;2022-09-03T04:23:53;12.50;74.20
32640;DHT22;19049;52.524;11.468;2022-09-03T04:33:49;12.00;60.90
32640;DHT22;19049;52.524;11.468;2022-09-03T04:36:17;12.10;61.40
32640;DHT22;19049;52.524;11.468;2022-09-03T04:38:45;12.20;61.80
32640;DHT22;19049;52.524;11.468;2022-09-03T04:41:14;12.20;62.40
32640;DHT22;19049;52.524;11.468;2022-09-03T04:43:40;12.20;62.60
32640;DHT22;19049;52.524;11.468;2022-09-03T04:46:11;12.10;62.80
32640;DHT22;19049;52.524;11.468;2022-09-03T04:48:38;12.20;62.60
32640;DHT22;19049;52.524;11.468;2022-09-03T04:51:08;12.20;62.50
32640;DHT22;19049;52.524;11.468;2022-09-03T04:53:39;12.20;62.70
32640;DHT22;19049;52.524;11.468;2022-09-03T04:56:16;12.10;63.00
32640;DHT22;19049;52.524;11.468;2022-09-03T04:58:42;12.20;63.60
32640;DHT22;19049;52.524;11.468;2022-09-03T05:01:20;12.20;63.40
32640;DHT22;19049;52.524;11.468;2022-09-03T05:03:47;12.30;64.20
32640;DHT22;19049;52.524;11.468;2022-09-03T05:06:13;12.30;63.80
32640;DHT22;19049;52.524;11.468;2022-09-03T05:08:39;12.40;63.70
32640;DHT22;19049;52.524;11.468;2022-09-03T05:11:06;12.40;64.10
32640;DHT22;19049;52.524;11.468;2022-09-03T05:13:33;12.40;64.10
32640;DHT22;19049;52.524;11.468;2022-09-03T05:16:00;12.50;63.90
32640;DHT22;19049;52.524;11.468;2022-09-03T05:18:26;12.50;63.90
32640;DHT22;19049;52.524;11.468;2022-09-03T05:21:06;12.60;64.20
32640;DHT22;19049;52.524;11.468;2022-09-03T05:23:36;12.70;64.60
32640;DHT22;19049;52.524;11.468;2022-09-03T05:26:10;12.80;64.60
32640;DHT22;19049;52.524;11.468;2022-09-03T05:28:38;13.00;71.50
32640;DHT22;19049;52.524;11.468;2022-09-03T05:31:09;13.10;80.70
32640;DHT22;19049;52.524;11.468;2022-09-03T05:33:37;13.20;68.40
32640;DHT22;19049;52.524;11.468;2022-09-03T05:36:05;13.30;92.90
32640;DHT22;19049;52.524;11.468;2022-09-03T05:38:32;13.20;64.90
32640;DHT22;19049;52.524;11.468;2022-09-03T05:40:59;13.30;64.50
32640;DHT22;19049;52.524;11.468;2022-09-03T05:43:28;13.40;64.80
32640;DHT22;19049;52.524;11.468;2022-09-03T05:46:19;13.50;64.50
32640;DHT22;19049;52.524;11.468;2022-09-03T05:48:45;13.60;65.30
32640;DHT22;19049;52.524;11.468;2022-09-03T05:51:17;13.70;64.90
32640;DHT22;19049;52.524;11.468;2022-09-03T05:53:45;13.90;65.40
32640;DHT22;19049;52.524;11.468;2022-09-03T05:56:16;14.10;65.60
32640;DHT22;19049;52.524;11.468;2022-09-03T05:58:47;14.30;65.90
32640;DHT22;19049;52.524;11.468;2022-09-03T06:01:42;14.60;65.70
32640;DHT22;19049;52.524;11.468;2022-09-03T06:04:10;14.90;65.00
32640;DHT22;19049;52.524;11.468;2022-09-03T06:06:38;15.20;64.70
32640;DHT22;19049;52.524;11.468;2022-09-03T06:09:06;15.50;64.40
32640;DHT22;19049;52.524;11.468;2022-09-03T06:11:35;15.80;63.90
32640;DHT22;19049;52.524;11.468;2022-09-03T06:14:06;16.00;64.10
32640;DHT22;19049;52.524;11.468;2022-09-03T06:16:35;16.20;62.80
32640;DHT22;19049;52.524;11.468;2022-09-03T06:19:02;16.50;62.60
32640;DHT22;19049;52.524;11.468;2022-09-03T06:21:28;16.70;62.20
32640;DHT22;19049;52.524;11.468;2022-09-03T06:23:55;17.00;61.60
32640;DHT22;19049;52.524;11.468;2022-09-03T06:26:22;17.20;60.80
32640;DHT22;19049;52.524;11.468;2022-09-03T06:28:48;17.50;60.50
32640;DHT22;19049;52.524;11.468;2022-09-03T06:31:18;17.70;60.00
32640;DHT22;19049;52.524;11.468;2022-09-03T06:33:45;17.90;59.50
32640;DHT22;19049;52.524;11.468;2022-09-03T06:36:13;18.10;59.10
32640;DHT22;19049;52.524;11.468;2022-09-03T06:38:43;18.40;58.80
32640;DHT22;19049;52.524;11.468;2022-09-03T06:41:17;18.60;58.20
32640;DHT22;19049;52.524;11.468;2022-09-03T06:43:51;18.80;57.50
32640;DHT22;19049;52.524;11.468;2022-09-03T06:46:19;18.90;56.90
32640;DHT22;19049;52.524;11.468;2022-09-03T06:48:45;19.10;56.60
32640;DHT22;19049;52.524;11.468;2022-09-03T06:51:17;19.20;56.40
32640;DHT22;19049;52.524;11.468;2022-09-03T06:53:45;19.40;56.00
32640;DHT22;19049;52.524;11.468;2022-09-03T06:56:17;19.50;55.70
32640;DHT22;19049;52.524;11.468;2022-09-03T06:58:45;19.60;55.40
32640;DHT22;19049;52.524;11.468;2022-09-03T07:01:17;19.80;55.30
32640;DHT22;19049;52.524;11.468;2022-09-03T07:03:45;19.90;54.70
32640;DHT22;19049;52.524;11.468;2022-09-03T07:06:16;20.10;54.70
32640;DHT22;19049;52.524;11.468;2022-09-03T07:08:43;20.30;54.40
32640;DHT22;19049;52.524;11.468;2022-09-03T07:11:13;20.40;54.00
32640;DHT22;19049;52.524;11.468;2022-09-03T07:13:42;20.60;53.60
32640;DHT22;19049;52.524;11.468;2022-09-03T07:19:13;20.90;52.90
32640;DHT22;19049;52.524;11.468;2022-09-03T07:21:40;21.10;52.70
32640;DHT22;19049;52.524;11.468;2022-09-03T07:24:07;21.30;53.20
32640;DHT22;19049;52.524;11.468;2022-09-03T07:26:37;21.50;52.00
32640;DHT22;19049;52.524;11.468;2022-09-03T07:29:10;21.70;52.20
32640;DHT22;19049;52.524;11.468;2022-09-03T07:31:39;21.90;51.60
32640;DHT22;19049;52.524;11.468;2022-09-03T07:34:07;22.00;50.40
32640;DHT22;19049;52.524;11.468;2022-09-03T07:36:41;22.10;50.40
32640;DHT22;19049;52.524;11.468;2022-09-03T07:39:08;22.30;50.00
32640;DHT22;19049;52.524;11.468;2022-09-03T07:41:38;22.40;49.60
32640;DHT22;19049;52.524;11.468;2022-09-03T07:44:10;22.50;50.00
32640;DHT22;19049;52.524;11.468;2022-09-03T07:46:36;22.70;49.70
32640;DHT22;19049;52.524;11.468;2022-09-03T07:49:05;22.90;49.60
32640;DHT22;19049;52.524;11.468;2022-09-03T07:51:34;23.00;49.40
32640;DHT22;19049;52.524;11.468;2022-09-03T07:54:05;23.20;49.30
32640;DHT22;19049;52.524;11.468;2022-09-03T07:56:33;23.40;48.60
32640;DHT22;19049;52.524;11.468;2022-09-03T07:59:01;23.60;47.80
32640;DHT22;19049;52.524;11.468;2022-09-03T08:01:29;23.70;47.50
32640;DHT22;19049;52.524;11.468;2022-09-03T08:03:56;23.80;46.20
32640;DHT22;19049;52.524;11.468;2022-09-03T08:06:23;23.90;46.00
32640;DHT22;19049;52.524;11.468;2022-09-03T08:08:57;23.90;46.50
32640;DHT22;19049;52.524;11.468;2022-09-03T08:11:25;24.00;45.10
32640;DHT22;19049;52.524;11.468;2022-09-03T08:13:57;24.00;45.50
32640;DHT22;19049;52.524;11.468;2022-09-03T08:16:30;24.10;45.20
32640;DHT22;19049;52.524;11.468;2022-09-03T08:18:56;24.20;45.60
32640;DHT22;19049;52.524;11.468;2022-09-03T08:21:23;24.40;45.60
32640;DHT22;19049;52.524;11.468;2022-09-03T08:23:54;24.50;45.20
32640;DHT22;19049;52.524;11.468;2022-09-03T08:26:21;24.70;44.80
32640;DHT22;19049;52.524;11.468;2022-09-03T08:28:47;24.90;44.50
32640;DHT22;19049;52.524;11.468;2022-09-03T08:31:18;25.00;44.60
32640;DHT22;19049;52.524;11.468;2022-09-03T08:33:46;25.10;43.80
32640;DHT22;19049;52.524;11.468;2022-09-03T08:36:15;25.20;43.70
32640;DHT22;19049;52.524;11.468;2022-09-03T08:38:42;25.30;43.50
32640;DHT22;19049;52.524;11.468;2022-09-03T08:41:19;25.40;43.60
32640;DHT22;19049;52.524;11.468;2022-09-03T08:49:42;25.70;42.50
32640;DHT22;19049;52.524;11.468;2022-09-03T08:52:13;25.80;42.40
32640;DHT22;19049;52.524;11.468;2022-09-03T08:54:41;25.80;41.50
32640;DHT22;19049;52.524;11.468;2022-09-03T08:57:07;25.90;41.50
32640;DHT22;19049;52.524;11.468;2022-09-03T08:59:36;25.90;41.10
32640;DHT22;19049;52.524;11.468;2022-09-03T09:05:16;25.90;40.00
32640;DHT22;19049;52.524;11.468;2022-09-03T09:08:07;25.90;41.00
32640;DHT22;19049;52.524;11.468;2022-09-03T09:10:43;26.00;40.70
32640;DHT22;19049;52.524;11.468;2022-09-03T09:18:24;26.20;39.40
32640;DHT22;19049;52.524;11.468;2022-09-03T09:20:58;26.20;39.20
32640;DHT22;19049;52.524;11.468;2022-09-03T09:23:32;26.20;38.80
32640;DHT22;19049;52.524;11.468;2022-09-03T09:26:03;26.20;38.60
32640;DHT22;19049;52.524;11.468;2022-09-03T09:28:35;26.20;38.00
32640;DHT22;19049;52.524;11.468;2022-09-03T09:31:04;26.20;38.20
32640;DHT22;19049;52.524;11.468;2022-09-03T09:33:31;26.30;37.90
32640;DHT22;19049;52.524;11.468;2022-09-03T09:36:09;26.30;38.50
32640;DHT22;19049;52.524;11.468;2022-09-03T09:38:37;26.40;38.10
32640;DHT22;19049;52.524;11.468;2022-09-03T09:41:19;26.40;37.40
32640;DHT22;19049;52.524;11.468;2022-09-03T09:43:59;26.40;35.50
32640;DHT22;19049;52.524;11.468;2022-09-03T09:46:35;26.40;36.00
32640;DHT22;19049;52.524;11.468;2022-09-03T09:49:00;26.40;35.70
32640;DHT22;19049;52.524;11.468;2022-09-03T09:51:28;26.30;36.00
32640;DHT22;19049;52.524;11.468;2022-09-03T09:54:16;26.30;36.10
32640;DHT22;19049;52.524;11.468;2022-09-03T09:56:57;26.30;35.40
32640;DHT22;19049;52.524;11.468;2022-09-03T09:59:23;26.30;35.10
32640;DHT22;19049;52.524;11.468;2022-09-03T10:01:48;26.20;35.40
32640;DHT22;19049;52.524;11.468;2022-09-03T10:04:28;26.20;35.00
32640;DHT22;19049;52.524;11.468;2022-09-03T10:07:15;26.20;35.20
32640;DHT22;19049;52.524;11.468;2022-09-03T10:09:44;26.20;35.00
32640;DHT22;19049;52.524;11.468;2022-09-03T10:18:07;26.20;35.40
32640;DHT22;19049;52.524;11.468;2022-09-03T10:20:38;26.20;34.70
32640;DHT22;19049;52.524;11.468;2022-09-03T10:23:21;26.30;35.00
32640;DHT22;19049;52.524;11.468;2022-09-03T10:28:26;26.40;33.90
32640;DHT22;19049;52.524;11.468;2022-09-03T10:33:26;26.40;31.80
32640;DHT22;19049;52.524;11.468;2022-09-03T10:36:10;26.50;31.50
32640;DHT22;19049;52.524;11.468;2022-09-03T10:38:38;26.50;31.80
32640;DHT22;19049;52.524;11.468;2022-09-03T10:41:29;26.50;31.00
32640;DHT22;19049;52.524;11.468;2022-09-03T10:44:21;26.50;30.70
32640;DHT22;19049;52.524;11.468;2022-09-03T10:49:27;26.40;31.00
32640;DHT22;19049;52.524;11.468;2022-09-03T10:52:22;26.30;30.80
32640;DHT22;19049;52.524;11.468;2022-09-03T10:58:22;25.90;31.30
32640;DHT22;19049;52.524;11.468;2022-09-03T11:00:53;25.70;31.80
32640;DHT22;19049;52.524;11.468;2022-09-03T11:03:46;25.70;32.30
32640;DHT22;19049;52.524;11.468;2022-09-03T11:06:17;25.70;31.80
32640;DHT22;19049;52.524;11.468;2022-09-03T11:08:55;25.70;31.70
32640;DHT22;19049;52.524;11.468;2022-09-03T11:11:40;25.60;31.30
32640;DHT22;19049;52.524;11.468;2022-09-03T11:14:11;25.50;31.50
32640;DHT22;19049;52.524;11.468;2022-09-03T11:16:57;25.50;32.10
32640;DHT22;19049;52.524;11.468;2022-09-03T11:19:34;25.50;31.50
32640;DHT22;19049;52.524;11.468;2022-09-03T11:22:03;25.40;32.40
32640;DHT22;19049;52.524;11.468;2022-09-03T11:24:31;25.40;31.90
32640;DHT22;19049;52.524;11.468;2022-09-03T11:27:14;25.40;31.80
32640;DHT22;19049;52.524;11.468;2022-09-03T11:32:39;25.30;31.80
32640;DHT22;19049;52.524;11.468;2022-09-03T11:35:25;25.30;31.40
32640;DHT22;19049;52.524;11.468;2022-09-03T11:46:04;25.80;32.40
32640;DHT22;19049;52.524;11.468;2022-09-03T11:48:41;25.90;32.10
32640;DHT22;19049;52.524;11.468;2022-09-03T11:53:56;26.30;31.80
32640;DHT22;19049;52.524;11.468;2022-09-03T11:56:24;26.50;31.70
32640;DHT22;19049;52.524;11.468;2022-09-03T11:59:01;26.60;31.60
32640;DHT22;19049;52.524;11.468;2022-09-03T12:01:28;26.80;31.00
32640;DHT22;19049;52.524;11.468;2022-09-03T12:04:00;26.90;30.80
32640;DHT22;19049;52.524;11.468;2022-09-03T12:17:58;27.70;29.50
32640;DHT22;19049;52.524;11.468;2022-09-03T12:23:42;27.80;29.60
32640;DHT22;19049;52.524;11.468;2022-09-03T12:26:19;27.70;29.80
32640;DHT22;19049;52.524;11.468;2022-09-03T12:28:50;27.50;29.80
32640;DHT22;19049;52.524;11.468;2022-09-03T12:31:21;27.30;29.90
32640;DHT22;19049;52.524;11.468;2022-09-03T12:34:06;27.10;30.00
32640;DHT22;19049;52.524;11.468;2022-09-03T12:36:46;26.90;30.00
32640;DHT22;19049;52.524;11.468;2022-09-03T12:39:20;26.60;30.10
32640;DHT22;19049;52.524;11.468;2022-09-03T12:42:01;26.50;30.40
32640;DHT22;19049;52.524;11.468;2022-09-03T12:44:39;26.30;30.10
32640;DHT22;19049;52.524;11.468;2022-09-03T12:47:13;26.20;30.10
32640;DHT22;19049;52.524;11.468;2022-09-03T12:49:41;26.10;30.30
32640;DHT22;19049;52.524;11.468;2022-09-03T12:54:53;25.80;30.60
32640;DHT22;19049;52.524;11.468;2022-09-03T12:57:25;25.80;31.00
32640;DHT22;19049;52.524;11.468;2022-09-03T12:59:56;25.90;31.50
32640;DHT22;19049;52.524;11.468;2022-09-03T13:02:28;26.10;31.70
32640;DHT22;19049;52.524;11.468;2022-09-03T13:04:59;26.40;31.40
32640;DHT22;19049;52.524;11.468;2022-09-03T13:07:27;26.70;31.10
32640;DHT22;19049;52.524;11.468;2022-09-03T13:10:00;27.10;31.20
32640;DHT22;19049;52.524;11.468;2022-09-03T13:12:51;27.50;30.40
32640;DHT22;19049;52.524;11.468;2022-09-03T13:15:24;28.00;28.90
32640;DHT22;19049;52.524;11.468;2022-09-03T13:21:13;28.30;30.00
32640;DHT22;19049;52.524;11.468;2022-09-03T13:24:12;28.50;29.20
32640;DHT22;19049;52.524;11.468;2022-09-03T13:32:35;29.30;28.60
32640;DHT22;19049;52.524;11.468;2022-09-03T13:35:23;29.60;28.40
32640;DHT22;19049;52.524;11.468;2022-09-03T13:40:55;30.00;27.70
32640;DHT22;19049;52.524;11.468;2022-09-03T13:43:28;30.10;26.70
32640;DHT22;19049;52.524;11.468;2022-09-03T13:48:40;30.00;27.20
32640;DHT22;19049;52.524;11.468;2022-09-03T13:54:19;29.90;26.70
32640;DHT22;19049;52.524;11.468;2022-09-03T13:57:00;29.70;26.80
32640;DHT22;19049;52.524;11.468;2022-09-03T14:08:12;29.00;27.50
32640;DHT22;19049;52.524;11.468;2022-09-03T14:21:08;29.00;27.00
32640;DHT22;19049;52.524;11.468;2022-09-03T14:26:33;28.90;27.40
32640;DHT22;19049;52.524;11.468;2022-09-03T14:34:38;29.40;27.70
32640;DHT22;19049;52.524;11.468;2022-09-03T14:39:54;29.40;27.10
32640;DHT22;19049;52.524;11.468;2022-09-03T14:45:27;29.10;26.90
32640;DHT22;19049;52.524;11.468;2022-09-03T14:56:20;27.50;28.10
32640;DHT22;19049;52.524;11.468;2022-09-03T15:01:37;26.70;29.10
32640;DHT22;19049;52.524;11.468;2022-09-03T15:04:28;26.50;29.20
32640;DHT22;19049;52.524;11.468;2022-09-03T15:07:15;26.40;29.40
32640;DHT22;19049;52.524;11.468;2022-09-03T15:09:58;26.40;29.40
32640;DHT22;19049;52.524;11.468;2022-09-03T15:12:37;26.40;29.50
32640;DHT22;19049;52.524;11.468;2022-09-03T15:15:15;26.30;29.70
32640;DHT22;19049;52.524;11.468;2022-09-03T15:32:20;27.80;28.80
32640;DHT22;19049;52.524;11.468;2022-09-03T15:37:56;28.00;28.40
32640;DHT22;19049;52.524;11.468;2022-09-03T15:43:29;27.60;28.60
32640;DHT22;19049;52.524;11.468;2022-09-03T15:46:01;27.50;28.70
32640;DHT22;19049;52.524;11.468;2022-09-03T15:48:57;27.40;29.00
32640;DHT22;19049;52.524;11.468;2022-09-03T15:51:41;27.30;29.10
32640;DHT22;19049;52.524;11.468;2022-09-03T15:54:29;27.40;29.20
32640;DHT22;19049;52.524;11.468;2022-09-03T15:57:18;27.40;29.20
32640;DHT22;19049;52.524;11.468;2022-09-03T16:05:18;27.50;29.00
32640;DHT22;19049;52.524;11.468;2022-09-03T16:08:09;27.50;28.90
32640;DHT22;19049;52.524;11.468;2022-09-03T16:13:29;27.30;29.10
32640;DHT22;19049;52.524;11.468;2022-09-03T16:16:01;27.10;29.30
32640;DHT22;19049;52.524;11.468;2022-09-03T16:18:40;27.00;29.40
32640;DHT22;19049;52.524;11.468;2022-09-03T16:24:16;26.70;29.30
32640;DHT22;19049;52.524;11.468;2022-09-03T16:29:16;26.40;29.80
32640;DHT22;19049;52.524;11.468;2022-09-03T16:40:11;26.00;30.50
32640;DHT22;19049;52.524;11.468;2022-09-03T16:42:44;25.90;30.50
32640;DHT22;19049;52.524;11.468;2022-09-03T16:45:40;25.90;30.60
32640;DHT22;19049;52.524;11.468;2022-09-03T16:48:32;25.90;30.50
32640;DHT22;19049;52.524;11.468;2022-09-03T16:50:58;25.90;30.50
32640;DHT22;19049;52.524;11.468;2022-09-03T17:05:20;25.70;30.60
32640;DHT22;19049;52.524;11.468;2022-09-03T17:11:02;25.40;30.90
32640;DHT22;19049;52.524;11.468;2022-09-03T17:13:56;25.20;31.10
32640;DHT22;19049;52.524;11.468;2022-09-03T17:16:41;25.00;31.40
32640;DHT22;19049;52.524;11.468;2022-09-03T17:19:10;24.70;31.70
32640;DHT22;19049;52.524;11.468;2022-09-03T17:36:16;23.70;33.70
32640;DHT22;19049;52.524;11.468;2022-09-03T17:41:51;23.30;34.00
32640;DHT22;19049;52.524;11.468;2022-09-03T17:44:32;23.10;34.10
32640;DHT22;19049;52.524;11.468;2022-09-03T17:47:31;23.00;34.50
32640;DHT22;19049;52.524;11.468;2022-09-03T17:50:25;22.80;34.80
32640;DHT22;19049;52.524;11.468;2022-09-03T17:52:55;22.70;35.30
32640;DHT22;19049;52.524;11.468;2022-09-03T17:55:36;22.60;35.20
32640;DHT22;19049;52.524;11.468;2022-09-03T18:01:12;22.30;35.60
32640;DHT22;19049;52.524;11.468;2022-09-03T18:03:52;22.20;35.80
32640;DHT22;19049;52.524;11.468;2022-09-03T18:14:58;21.70;36.60
32640;DHT22;19049;52.524;11.468;2022-09-03T18:20:27;21.50;36.60
32640;DHT22;19049;52.524;11.468;2022-09-03T18:23:25;21.50;39.60
32640;DHT22;19049;52.524;11.468;2022-09-03T18:26:20;21.40;37.00
32640;DHT22;19049;52.524;11.468;2022-09-03T18:29:14;21.20;37.10
32640;DHT22;19049;52.524;11.468;2022-09-03T18:31:59;21.00;36.30
32640;DHT22;19049;52.524;11.468;2022-09-03T18:34:45;21.00;37.30
32640;DHT22;19049;52.524;11.468;2022-09-03T18:37:30;20.80;37.40
32640;DHT22;19049;52.524;11.468;2022-09-03T18:40:19;20.70;38.10
32640;DHT22;19049;52.524;11.468;2022-09-03T18:43:33;20.60;37.70
32640;DHT22;19049;52.524;11.468;2022-09-03T18:50:12;20.20;38.40
32640;DHT22;19049;52.524;11.468;2022-09-03T18:57:02;19.80;38.90
32640;DHT22;19049;52.524;11.468;2022-09-03T19:02:32;19.40;39.70
32640;DHT22;19049;52.524;11.468;2022-09-03T19:05:29;19.20;39.90
32640;DHT22;19049;52.524;11.468;2022-09-03T19:08:27;19.00;40.00
32640;DHT22;19049;52.524;11.468;2022-09-03T19:11:29;18.70;40.70
32640;DHT22;19049;52.524;11.468;2022-09-03T19:14:49;18.50;41.00
32640;DHT22;19049;52.524;11.468;2022-09-03T19:20:40;18.10;41.50
32640;DHT22;19049;52.524;11.468;2022-09-03T19:23:27;17.90;41.50
32640;DHT22;19049;52.524;11.468;2022-09-03T19:26:25;17.80;42.00
32640;DHT22;19049;52.524;11.468;2022-09-03T19:30:04;17.60;42.60
32640;DHT22;19049;52.524;11.468;2022-09-03T19:38:59;17.00;43.40
32640;DHT22;19049;52.524;11.468;2022-09-03T19:42:01;16.80;43.30
32640;DHT22;19049;52.524;11.468;2022-09-03T19:45:02;16.70;44.10
32640;DHT22;19049;52.524;11.468;2022-09-03T19:48:01;16.50;44.60
32640;DHT22;19049;52.524;11.468;2022-09-03T19:53:53;16.30;44.80
32640;DHT22;19049;52.524;11.468;2022-09-03T19:56:39;16.20;44.50
32640;DHT22;19049;52.524;11.468;2022-09-03T19:59:25;16.20;44.90
32640;DHT22;19049;52.524;11.468;2022-09-03T20:02:12;16.10;45.20
32640;DHT22;19049;52.524;11.468;2022-09-03T20:05:01;16.00;45.10
32640;DHT22;19049;52.524;11.468;2022-09-03T20:07:49;15.90;45.50
32640;DHT22;19049;52.524;11.468;2022-09-03T20:10:34;15.90;45.60
32640;DHT22;19049;52.524;11.468;2022-09-03T20:13:15;15.80;45.60
32640;DHT22;19049;52.524;11.468;2022-09-03T20:24:37;15.80;46.50
32640;DHT22;19049;52.524;11.468;2022-09-03T20:38:15;15.90;46.90
32640;DHT22;19049;52.524;11.468;2022-09-03T20:54:29;16.20;46.70
32640;DHT22;19049;52.524;11.468;2022-09-03T20:57:15;16.20;46.70
32640;DHT22;19049;52.524;11.468;2022-09-03T20:59:55;16.30;46.90
32640;DHT22;19049;52.524;11.468;2022-09-03T21:05:24;16.30;47.00
32640;DHT22;19049;52.524;11.468;2022-09-03T21:08:09;16.40;46.90
32640;DHT22;19049;52.524;11.468;2022-09-03T21:11:00;16.40;46.70
32640;DHT22;19049;52.524;11.468;2022-09-03T21:14:03;16.40;46.80
32640;DHT22;19049;52.524;11.468;2022-09-03T21:24:34;16.40;47.10
32640;DHT22;19049;52.524;11.468;2022-09-03T21:27:05;16.40;47.00
32640;DHT22;19049;52.524;11.468;2022-09-03T21:29:44;16.30;47.10
32640;DHT22;19049;52.524;11.468;2022-09-03T21:32:21;16.30;47.30
32640;DHT22;19049;52.524;11.468;2022-09-03T21:35:03;16.30;47.40
32640;DHT22;19049;52.524;11.468;2022-09-03T21:37:36;16.30;47.50
32640;DHT22;19049;52.524;11.468;2022-09-03T21:40:06;16.30;47.30
32640;DHT22;19049;52.524;11.468;2022-09-03T21:42:43;16.30;47.30
32640;DHT22;19049;52.524;11.468;2022-09-03T21:47:52;16.20;47.60
32640;DHT22;19049;52.524;11.468;2022-09-03T21:50:27;16.20;47.50
32640;DHT22;19049;52.524;11.468;2022-09-03T21:55:57;16.20;47.90
32640;DHT22;19049;52.524;11.468;2022-09-03T21:59:18;16.20;48.00
32640;DHT22;19049;52.524;11.468;2022-09-03T22:01:29;16.20;47.80